createdAt,value
2023-03-26T00:00:54.412Z,2.90
2023-03-26T00:03:22.490Z,2.60
2023-03-26T00:05:49.679Z,3.80
2023-03-26T00:08:17.400Z,3.70
2023-03-26T00:10:44.444Z,3.00
2023-03-26T00:13:11.698Z,2.30
2023-03-26T00:15:38.738Z,2.50
2023-03-26T00:18:06.003Z,2.30
2023-03-26T00:20:35.911Z,2.10
2023-03-26T00:23:02.952Z,2.20
2023-03-26T00:25:30.001Z,2.50
2023-03-26T00:27:57.353Z,2.90
2023-03-26T00:30:24.302Z,4.10
2023-03-26T00:32:53.775Z,2.40
2023-03-26T00:35:22.529Z,2.30
2023-03-26T00:37:51.763Z,3.20
2023-03-26T00:40:18.958Z,2.00
2023-03-26T00:42:45.895Z,1.90
2023-03-26T00:45:12.626Z,2.10
2023-03-26T00:47:40.663Z,3.00
2023-03-26T00:50:15.434Z,3.10
2023-03-26T00:52:44.037Z,2.60
2023-03-26T00:55:10.831Z,2.50
2023-03-26T00:57:38.275Z,2.80
2023-03-26T01:00:11.318Z,2.50
2023-03-26T01:02:38.204Z,2.60
2023-03-26T01:05:25.811Z,2.40
2023-03-26T01:07:52.707Z,2.80
2023-03-26T01:10:22.859Z,2.70
2023-03-26T01:12:49.784Z,2.00
2023-03-26T01:15:16.531Z,2.10
2023-03-26T01:17:43.637Z,1.80
2023-03-26T01:20:15.229Z,2.10
2023-03-26T01:22:44.732Z,2.10
2023-03-26T01:25:12.306Z,1.80
2023-03-26T01:27:42.383Z,1.70
2023-03-26T01:30:29.498Z,1.60
2023-03-26T01:33:07.364Z,1.60
2023-03-26T01:35:37.988Z,1.50
2023-03-26T01:38:14.113Z,1.80
2023-03-26T01:40:47.039Z,1.60
2023-03-26T01:43:17.429Z,1.70
2023-03-26T01:45:46.357Z,1.60
2023-03-26T01:48:13.767Z,1.90
2023-03-26T01:50:40.833Z,1.50
2023-03-26T01:53:09.505Z,1.50
2023-03-26T01:55:56.251Z,2.00
2023-03-26T01:58:30.089Z,1.00
2023-03-26T02:01:02.940Z,1.40
2023-03-26T02:03:39.143Z,1.30
2023-03-26T02:06:11.390Z,1.50
2023-03-26T02:08:41.880Z,2.00
2023-03-26T02:11:13.663Z,1.30
2023-03-26T02:13:42.016Z,1.40
2023-03-26T02:16:11.714Z,1.60
2023-03-26T02:18:41.855Z,1.80
2023-03-26T02:21:11.120Z,1.30
2023-03-26T02:23:42.270Z,0.90
2023-03-26T02:26:10.136Z,3.00
2023-03-26T02:28:42.612Z,2.40
2023-03-26T02:31:14.066Z,1.70
2023-03-26T02:33:41.314Z,1.90
2023-03-26T02:36:08.760Z,1.20
2023-03-26T02:38:35.661Z,0.70
2023-03-26T02:41:02.865Z,1.20
2023-03-26T02:43:39.737Z,1.30
2023-03-26T02:46:08.283Z,2.00
2023-03-26T02:48:53.499Z,2.20
2023-03-26T02:51:26.065Z,1.60
2023-03-26T02:53:59.549Z,1.20
2023-03-26T02:56:29.043Z,1.40
2023-03-26T02:59:06.366Z,1.30
2023-03-26T03:01:35.096Z,1.20
2023-03-26T03:04:04.518Z,1.60
2023-03-26T03:06:38.452Z,1.10
2023-03-26T03:09:05.916Z,1.70
2023-03-26T03:11:36.162Z,1.40
2023-03-26T03:14:03.591Z,1.40
2023-03-26T03:16:31.581Z,1.80
2023-03-26T03:19:03.117Z,1.30
2023-03-26T03:21:36.113Z,1.60
2023-03-26T03:24:03.148Z,1.60
2023-03-26T03:26:34.242Z,1.60
2023-03-26T03:29:13.216Z,1.70
2023-03-26T03:31:41.492Z,1.80
2023-03-26T03:34:16.118Z,1.70
2023-03-26T03:36:48.579Z,1.70
2023-03-26T03:39:25.372Z,1.60
2023-03-26T03:41:52.134Z,2.10
2023-03-26T03:44:19.054Z,1.80
2023-03-26T03:46:49.375Z,1.80
2023-03-26T03:49:16.630Z,2.20
2023-03-26T03:51:43.889Z,3.10
2023-03-26T03:54:26.296Z,2.10
2023-03-26T03:57:04.041Z,2.60
2023-03-26T03:59:47.577Z,3.10
2023-03-26T04:02:21.307Z,3.80
2023-03-26T04:04:50.518Z,3.30
2023-03-26T04:07:21.187Z,3.10
2023-03-26T04:10:15.135Z,1.70
2023-03-26T04:13:20.667Z,2.50
2023-03-26T04:16:06.401Z,2.40
2023-03-26T04:18:33.624Z,2.90
2023-03-26T04:21:07.659Z,3.20
2023-03-26T04:23:34.984Z,2.70
2023-03-26T04:26:22.404Z,2.70
2023-03-26T04:29:03.504Z,3.10
2023-03-26T04:31:32.124Z,2.40
2023-03-26T04:34:05.781Z,3.10
2023-03-26T04:36:34.540Z,2.10
2023-03-26T04:39:04.865Z,3.00
2023-03-26T04:41:51.972Z,3.70
2023-03-26T04:44:22.433Z,3.60
2023-03-26T04:46:57.998Z,3.40
2023-03-26T04:49:35.118Z,3.40
2023-03-26T04:52:02.311Z,3.20
2023-03-26T04:54:52.103Z,2.40
2023-03-26T04:57:29.859Z,3.10
2023-03-26T05:00:18.883Z,3.70
2023-03-26T05:02:50.660Z,3.40
2023-03-26T05:05:17.897Z,3.90
2023-03-26T05:07:44.738Z,4.40
2023-03-26T05:10:14.635Z,4.80
2023-03-26T05:13:03.745Z,4.00
2023-03-26T05:15:34.739Z,4.40
2023-03-26T05:18:08.978Z,5.20
2023-03-26T05:20:41.763Z,5.70
2023-03-26T05:23:09.368Z,5.70
2023-03-26T05:25:38.067Z,4.90
2023-03-26T05:28:11.010Z,4.60
2023-03-26T05:30:47.712Z,4.70
2023-03-26T05:33:14.878Z,4.80
2023-03-26T05:35:49.629Z,4.50
2023-03-26T05:38:17.734Z,4.80
2023-03-26T05:40:44.648Z,5.50
2023-03-26T05:43:16.013Z,6.50
2023-03-26T05:45:49.791Z,5.30
2023-03-26T05:48:21.855Z,5.50
2023-03-26T05:50:49.488Z,5.60
2023-03-26T05:53:18.460Z,5.70
2023-03-26T05:56:04.424Z,4.80
2023-03-26T05:59:03.131Z,6.40
2023-03-26T06:01:51.103Z,5.40
2023-03-26T06:04:51.061Z,4.70
2023-03-26T06:07:28.782Z,4.90
2023-03-26T06:10:09.676Z,4.80
2023-03-26T06:12:37.276Z,4.70
2023-03-26T06:15:05.775Z,4.20
2023-03-26T06:17:54.642Z,4.40
2023-03-26T06:20:46.553Z,4.40
2023-03-26T06:23:27.244Z,4.10
2023-03-26T06:26:08.389Z,3.60
2023-03-26T06:29:07.902Z,3.60
2023-03-26T06:31:46.428Z,4.10
2023-03-26T06:34:26.066Z,4.00
2023-03-26T06:36:54.561Z,4.30
2023-03-26T06:39:22.261Z,3.80
2023-03-26T06:42:01.698Z,4.40
2023-03-26T06:44:47.203Z,4.50
2023-03-26T06:47:19.867Z,4.70
2023-03-26T06:50:06.088Z,4.40
2023-03-26T06:52:59.290Z,4.30
2023-03-26T06:55:58.653Z,4.30
2023-03-26T06:58:43.926Z,5.00
2023-03-26T07:01:29.426Z,3.80
2023-03-26T07:04:22.269Z,3.40
2023-03-26T07:07:07.664Z,3.70
2023-03-26T07:09:53.195Z,3.60
2023-03-26T07:12:38.889Z,4.00
2023-03-26T07:15:37.885Z,3.60
2023-03-26T07:18:40.359Z,3.40
2023-03-26T07:21:10.484Z,3.10
2023-03-26T07:23:37.733Z,3.20
2023-03-26T07:26:33.041Z,2.50
2023-03-26T07:29:13.401Z,2.30
2023-03-26T07:32:10.968Z,3.00
2023-03-26T07:35:25.742Z,3.40
2023-03-26T07:38:19.221Z,5.30
2023-03-26T07:41:22.690Z,5.80
2023-03-26T07:44:28.041Z,4.10
2023-03-26T07:47:32.808Z,4.00
2023-03-26T07:50:18.390Z,3.90
2023-03-26T07:53:25.238Z,4.00
2023-03-26T07:56:26.039Z,4.60
2023-03-26T07:59:12.989Z,4.60
2023-03-26T08:01:48.632Z,8.90
2023-03-26T08:04:29.901Z,8.30
2023-03-26T08:07:31.393Z,7.30
2023-03-26T08:10:14.496Z,5.90
2023-03-26T08:13:18.429Z,6.90
2023-03-26T08:15:48.321Z,6.10
2023-03-26T08:18:18.348Z,5.70
2023-03-26T08:20:45.068Z,4.50
2023-03-26T08:23:28.102Z,4.70
2023-03-26T08:25:59.651Z,4.80
2023-03-26T08:28:42.873Z,5.10
2023-03-26T08:31:11.579Z,4.60
2023-03-26T08:33:41.057Z,4.20
2023-03-26T08:36:09.966Z,3.70
2023-03-26T08:38:37.004Z,4.10
2023-03-26T08:41:10.192Z,4.20
2023-03-26T08:43:53.804Z,3.80
2023-03-26T08:46:22.363Z,3.80
2023-03-26T08:49:08.197Z,4.00
2023-03-26T08:51:35.037Z,2.80
2023-03-26T08:54:03.908Z,2.90
2023-03-26T08:56:37.561Z,3.50
2023-03-26T08:59:23.442Z,2.20
2023-03-26T09:02:02.609Z,2.50
2023-03-26T09:04:35.948Z,2.40
2023-03-26T09:07:38.218Z,2.00
2023-03-26T09:10:23.496Z,2.30
2023-03-26T09:13:05.910Z,1.90
2023-03-26T09:15:38.882Z,2.20
2023-03-26T09:18:08.495Z,2.40
2023-03-26T09:20:54.328Z,3.00
2023-03-26T09:23:52.047Z,2.60
2023-03-26T09:26:25.043Z,4.00
2023-03-26T09:29:04.379Z,4.30
2023-03-26T09:31:31.293Z,6.80
2023-03-26T09:34:13.231Z,4.40
2023-03-26T09:36:59.120Z,4.30
2023-03-26T09:39:25.951Z,4.30
2023-03-26T09:41:58.996Z,4.20
2023-03-26T09:44:33.159Z,4.80
2023-03-26T09:47:27.301Z,4.10
2023-03-26T09:49:54.479Z,3.60
2023-03-26T09:52:21.326Z,3.70
2023-03-26T09:55:08.855Z,3.60
2023-03-26T09:57:35.608Z,4.60
2023-03-26T10:00:02.743Z,3.60
2023-03-26T10:02:47.426Z,2.30
2023-03-26T10:05:34.563Z,2.20
2023-03-26T10:08:04.854Z,6.20
2023-03-26T10:10:44.005Z,3.00
2023-03-26T10:13:14.812Z,4.60
2023-03-26T10:15:54.448Z,2.80
2023-03-26T10:18:29.458Z,3.60
2023-03-26T10:21:28.383Z,2.70
2023-03-26T10:24:14.163Z,2.10
2023-03-26T10:27:08.333Z,1.50
2023-03-26T10:29:33.851Z,1.80
2023-03-26T10:32:16.191Z,1.90
2023-03-26T10:35:07.483Z,1.60
2023-03-26T10:37:43.667Z,1.50
2023-03-26T10:40:16.555Z,1.70
2023-03-26T10:43:01.320Z,2.00
2023-03-26T10:45:48.526Z,1.40
2023-03-26T10:48:26.410Z,1.30
2023-03-26T10:51:02.291Z,0.90
2023-03-26T10:53:41.605Z,1.30
2023-03-26T10:56:11.146Z,1.00
2023-03-26T10:58:49.746Z,0.80
2023-03-26T11:01:32.673Z,1.00
2023-03-26T11:04:22.630Z,1.20
2023-03-26T11:06:59.721Z,0.70
2023-03-26T11:09:26.755Z,1.30
2023-03-26T11:11:53.539Z,0.90
2023-03-26T11:14:35.762Z,0.50
2023-03-26T11:17:05.717Z,1.10
2023-03-26T11:19:35.645Z,0.70
2023-03-26T11:22:11.485Z,0.70
2023-03-26T11:24:50.574Z,0.90
2023-03-26T11:27:36.306Z,1.00
2023-03-26T11:30:12.779Z,0.70
2023-03-26T11:32:42.528Z,0.80
2023-03-26T11:35:16.302Z,0.70
2023-03-26T11:37:53.994Z,0.90
2023-03-26T11:40:33.962Z,0.70
2023-03-26T11:43:02.441Z,0.70
2023-03-26T11:45:32.139Z,0.80
2023-03-26T11:48:08.362Z,0.80
2023-03-26T11:50:38.941Z,0.90
2023-03-26T11:53:18.057Z,0.60
2023-03-26T11:55:48.453Z,0.70
2023-03-26T11:58:38.569Z,1.10
2023-03-26T12:01:13.185Z,0.70
2023-03-26T12:03:41.052Z,0.70
2023-03-26T12:06:22.848Z,0.70
2023-03-26T12:08:50.310Z,0.50
2023-03-26T12:11:18.990Z,1.20
2023-03-26T12:13:53.304Z,0.80
2023-03-26T12:16:21.041Z,0.70
2023-03-26T12:18:58.069Z,0.60
2023-03-26T12:21:24.997Z,0.70
2023-03-26T12:23:57.972Z,0.80
2023-03-26T12:26:46.554Z,0.80
2023-03-26T12:29:15.008Z,0.90
2023-03-26T12:31:47.892Z,0.50
2023-03-26T12:34:18.325Z,0.70
2023-03-26T12:36:53.357Z,0.60
2023-03-26T12:40:07.431Z,0.70
2023-03-26T12:44:48.416Z,0.90
2023-03-26T12:45:24.087Z,1.00
2023-03-26T12:48:01.798Z,1.30
2023-03-26T12:50:41.460Z,1.50
2023-03-26T12:53:19.689Z,1.30
2023-03-26T12:55:54.309Z,0.80
2023-03-26T12:58:21.126Z,1.10
2023-03-26T13:00:50.946Z,1.30
2023-03-26T13:03:38.054Z,1.50
2023-03-26T13:06:05.022Z,2.50
2023-03-26T13:08:44.784Z,1.70
2023-03-26T13:11:30.456Z,1.20
2023-03-26T13:14:03.939Z,1.10
2023-03-26T13:16:34.183Z,1.60
2023-03-26T13:19:04.500Z,1.40
2023-03-26T13:21:37.595Z,0.90
2023-03-26T13:24:22.870Z,1.40
2023-03-26T13:26:49.809Z,2.10
2023-03-26T13:29:17.675Z,1.80
2023-03-26T13:31:47.591Z,1.20
2023-03-26T13:34:18.316Z,2.00
2023-03-26T13:36:54.480Z,2.00
2023-03-26T13:39:30.228Z,2.00
2023-03-26T13:41:57.076Z,1.60
2023-03-26T13:44:31.963Z,1.10
2023-03-26T13:47:19.085Z,1.30
2023-03-26T13:50:00.818Z,1.40
2023-03-26T13:52:35.527Z,1.30
2023-03-26T13:55:14.575Z,1.40
2023-03-26T13:57:47.964Z,1.50
2023-03-26T14:00:21.987Z,0.90
2023-03-26T14:03:09.955Z,1.70
2023-03-26T14:05:42.828Z,1.30
2023-03-26T14:08:27.978Z,1.30
2023-03-26T14:11:18.036Z,1.20
2023-03-26T14:14:06.922Z,1.10
2023-03-26T14:16:48.711Z,1.80
2023-03-26T14:19:21.500Z,1.30
2023-03-26T14:22:07.176Z,1.20
2023-03-26T14:24:46.513Z,1.00
2023-03-26T14:27:16.544Z,1.20
2023-03-26T14:29:56.985Z,1.50
2023-03-26T14:32:33.680Z,1.10
2023-03-26T14:35:09.650Z,1.00
2023-03-26T14:37:39.628Z,1.10
2023-03-26T14:40:21.586Z,0.80
2023-03-26T14:42:56.494Z,0.90
2023-03-26T14:45:23.554Z,0.90
2023-03-26T14:47:59.772Z,0.90
2023-03-26T14:50:42.819Z,1.10
2023-03-26T14:53:14.755Z,1.50
2023-03-26T14:55:44.266Z,0.50
2023-03-26T14:58:22.371Z,1.10
2023-03-26T15:01:04.483Z,0.90
2023-03-26T15:04:01.736Z,1.10
2023-03-26T15:06:57.302Z,0.90
2023-03-26T15:09:23.966Z,0.90
2023-03-26T15:12:12.685Z,0.90
2023-03-26T15:14:46.246Z,1.10
2023-03-26T15:17:13.076Z,1.00
2023-03-26T15:19:58.808Z,1.10
2023-03-26T15:22:44.857Z,1.20
2023-03-26T15:25:34.425Z,1.00
2023-03-26T15:28:10.519Z,1.00
2023-03-26T15:31:00.083Z,1.10
2023-03-26T15:33:46.752Z,0.90
2023-03-26T15:36:45.764Z,1.20
2023-03-26T15:39:32.486Z,0.70
2023-03-26T15:42:14.885Z,0.80
2023-03-26T15:44:53.211Z,0.90
2023-03-26T15:47:27.212Z,0.80
2023-03-26T15:49:59.993Z,1.20
2023-03-26T15:52:34.611Z,1.10
2023-03-26T15:55:16.899Z,0.90
2023-03-26T15:57:49.381Z,0.80
2023-03-26T16:00:19.766Z,0.70
2023-03-26T16:02:50.669Z,0.70
2023-03-26T16:05:30.288Z,0.60
2023-03-26T16:08:09.325Z,0.30
2023-03-26T16:10:41.299Z,0.80
2023-03-26T16:13:23.440Z,0.80
2023-03-26T16:15:58.359Z,0.80
2023-03-26T16:18:29.210Z,1.00
2023-03-26T16:21:04.516Z,0.90
2023-03-26T16:23:47.887Z,1.20
2023-03-26T16:26:21.271Z,25.20
2023-03-26T16:28:53.081Z,11.10
2023-03-26T16:31:36.867Z,9.00
2023-03-26T16:34:05.601Z,8.10
2023-03-26T16:36:35.114Z,8.10
2023-03-26T16:39:08.713Z,7.80
2023-03-26T16:41:50.419Z,7.20
2023-03-26T16:44:23.488Z,6.70
2023-03-26T16:46:56.369Z,4.10
2023-03-26T16:49:35.823Z,4.30
2023-03-26T16:52:21.502Z,2.50
2023-03-26T16:55:16.895Z,2.00
2023-03-26T16:57:56.783Z,2.40
2023-03-26T17:00:32.705Z,1.60
2023-03-26T17:03:17.952Z,1.50
2023-03-26T17:05:57.237Z,1.40
2023-03-26T17:08:43.370Z,2.20
2023-03-26T17:11:22.437Z,2.30
2023-03-26T17:14:08.281Z,2.20
2023-03-26T17:16:38.292Z,2.30
2023-03-26T17:19:05.720Z,5.10
2023-03-26T17:21:51.998Z,4.90
2023-03-26T17:24:28.064Z,4.40
2023-03-26T17:27:34.802Z,4.60
2023-03-26T17:30:21.846Z,5.90
2023-03-26T17:33:12.152Z,6.60
2023-03-26T17:35:40.709Z,6.60
2023-03-26T17:38:16.710Z,6.60
2023-03-26T17:40:52.140Z,8.10
2023-03-26T17:43:38.014Z,6.30
2023-03-26T17:46:21.107Z,5.90
2023-03-26T17:48:52.667Z,10.10
2023-03-26T17:51:38.479Z,9.50
2023-03-26T17:54:14.967Z,5.20
2023-03-26T17:56:42.431Z,5.80
2023-03-26T17:59:16.216Z,6.00
2023-03-26T18:01:48.379Z,6.50
2023-03-26T18:04:19.792Z,11.10
2023-03-26T18:06:53.631Z,11.70
2023-03-26T18:09:26.534Z,11.50
2023-03-26T18:11:53.368Z,9.80
2023-03-26T18:14:23.076Z,6.80
2023-03-26T18:16:51.805Z,4.60
2023-03-26T18:19:20.612Z,4.30
2023-03-26T18:21:50.460Z,3.80
2023-03-26T18:24:27.874Z,3.40
2023-03-26T18:27:12.495Z,3.70
2023-03-26T18:29:43.661Z,3.20
2023-03-26T18:32:22.301Z,2.90
2023-03-26T18:34:57.947Z,3.00
2023-03-26T18:37:27.357Z,3.40
2023-03-26T18:40:00.737Z,2.50
2023-03-26T18:42:28.599Z,3.60
2023-03-26T18:44:59.760Z,4.50
2023-03-26T18:47:29.471Z,4.60
2023-03-26T18:49:57.658Z,4.40
2023-03-26T18:52:27.636Z,3.90
2023-03-26T18:54:54.880Z,3.80
2023-03-26T18:57:23.722Z,3.80
2023-03-26T18:59:51.963Z,3.60
2023-03-26T19:02:19.066Z,4.20
2023-03-26T19:04:47.333Z,3.50
2023-03-26T19:07:16.077Z,3.60
2023-03-26T19:09:43.671Z,3.90
2023-03-26T19:12:18.153Z,3.50
2023-03-26T19:14:53.684Z,4.40
2023-03-26T19:17:21.368Z,7.30
2023-03-26T19:19:49.527Z,10.10
2023-03-26T19:22:17.195Z,11.00
2023-03-26T19:24:44.241Z,11.70
2023-03-26T19:27:11.308Z,12.40
2023-03-26T19:29:38.538Z,11.10
2023-03-26T19:32:16.639Z,11.40
2023-03-26T19:34:46.142Z,10.60
2023-03-26T19:37:24.050Z,8.20
2023-03-26T19:39:51.500Z,8.60
2023-03-26T19:42:26.510Z,9.60
2023-03-26T19:44:53.803Z,9.80
2023-03-26T19:47:25.004Z,12.20
2023-03-26T19:50:02.011Z,12.50
2023-03-26T19:52:32.998Z,12.70
2023-03-26T19:55:01.847Z,12.60
2023-03-26T19:57:29.922Z,13.50
2023-03-26T19:59:57.575Z,15.50
2023-03-26T20:02:25.054Z,17.10
2023-03-26T20:04:51.796Z,16.10
2023-03-26T20:07:22.336Z,17.10
2023-03-26T20:10:03.166Z,15.10
2023-03-26T20:12:30.027Z,13.50
2023-03-26T20:14:57.279Z,16.70
2023-03-26T20:17:24.119Z,16.80
2023-03-26T20:19:52.598Z,17.50
2023-03-26T20:22:23.698Z,21.00
2023-03-26T20:24:51.824Z,19.70
2023-03-26T20:27:19.486Z,20.70
2023-03-26T20:29:46.748Z,24.30
2023-03-26T20:32:26.352Z,22.90
2023-03-26T20:34:55.128Z,22.20
2023-03-26T20:37:22.198Z,15.30
2023-03-26T20:39:48.905Z,14.60
2023-03-26T20:42:16.257Z,11.90
2023-03-26T20:44:43.244Z,11.60
2023-03-26T20:47:11.780Z,12.80
2023-03-26T20:49:40.463Z,11.10
2023-03-26T20:52:07.362Z,9.20
2023-03-26T20:54:35.813Z,9.20
2023-03-26T20:57:02.888Z,7.70
2023-03-26T20:59:30.415Z,10.10
2023-03-26T21:01:58.169Z,9.40
2023-03-26T21:04:26.575Z,16.20
2023-03-26T21:07:00.225Z,14.50
2023-03-26T21:09:35.660Z,21.90
2023-03-26T21:12:07.283Z,15.10
2023-03-26T21:14:41.888Z,11.20
2023-03-26T21:17:17.071Z,11.90
2023-03-26T21:19:44.601Z,11.30
2023-03-26T21:22:17.794Z,11.20
2023-03-26T21:24:47.701Z,8.10
2023-03-26T21:27:27.456Z,7.10
2023-03-26T21:29:55.314Z,7.70
2023-03-26T21:32:22.995Z,6.00
2023-03-26T21:34:58.644Z,6.10
2023-03-26T21:37:27.138Z,4.50
2023-03-26T21:39:54.374Z,5.00
2023-03-26T21:42:21.621Z,4.80
2023-03-26T21:44:48.894Z,3.00
2023-03-26T21:47:16.131Z,3.50
2023-03-26T21:49:43.262Z,3.80
2023-03-26T21:52:15.772Z,6.10
2023-03-26T21:54:43.480Z,4.90
2023-03-26T21:57:17.702Z,5.60
2023-03-26T21:59:52.072Z,4.60
2023-03-26T22:02:32.297Z,3.60
2023-03-26T22:05:05.595Z,2.80
2023-03-26T22:07:51.005Z,2.50
2023-03-26T22:10:18.118Z,1.60
2023-03-26T22:12:44.968Z,1.60
2023-03-26T22:15:14.132Z,1.30
2023-03-26T22:17:41.872Z,1.70
2023-03-26T22:20:10.614Z,1.30
2023-03-26T22:22:37.458Z,1.40
2023-03-26T22:25:04.392Z,1.40
2023-03-26T22:27:31.134Z,1.50
2023-03-26T22:29:57.831Z,1.20
2023-03-26T22:32:24.632Z,1.20
2023-03-26T22:34:59.851Z,1.10
2023-03-26T22:37:27.522Z,1.20
2023-03-26T22:39:54.360Z,1.30
2023-03-26T22:42:21.508Z,1.20
2023-03-26T22:44:48.470Z,0.80
2023-03-26T22:47:17.110Z,0.80
2023-03-26T22:49:44.103Z,0.70
2023-03-26T22:52:11.238Z,1.00
2023-03-26T22:54:38.902Z,0.50
2023-03-26T22:57:05.776Z,0.50
2023-03-26T22:59:32.786Z,0.30
2023-03-26T23:01:59.669Z,0.50
2023-03-26T23:04:32.240Z,0.60
2023-03-26T23:06:59.868Z,0.40
2023-03-26T23:09:26.709Z,0.40
2023-03-26T23:11:53.580Z,0.30
2023-03-26T23:14:20.398Z,0.30
2023-03-26T23:16:47.135Z,0.20
2023-03-26T23:19:13.873Z,0.20
2023-03-26T23:21:40.679Z,0.20
2023-03-26T23:24:08.362Z,0.20
2023-03-26T23:26:49.563Z,0.20
2023-03-26T23:29:17.495Z,0.10
2023-03-26T23:31:44.326Z,0.30
2023-03-26T23:34:13.639Z,0.30
2023-03-26T23:36:41.990Z,0.20
2023-03-26T23:39:09.715Z,0.40
2023-03-26T23:41:36.929Z,0.30
2023-03-26T23:44:04.106Z,0.10
2023-03-26T23:46:34.818Z,0.20
2023-03-26T23:49:04.956Z,0.20
2023-03-26T23:51:32.219Z,0.20
2023-03-26T23:54:00.177Z,0.10
2023-03-26T23:56:33.029Z,0.10
2023-03-26T23:59:00.927Z,0.20
